Here is the Quick Look data you requested

The Data originates at the National Weather Service, and is made available here by the UAlbany Department of Atmospheric and Environmental Sciences

Surface Observations

KAKQ 190754Z AUTO 36004KT 10SM CLR 04/M03 A3046 RMK AO2 SLP316 T00391033=
KAVC 190755Z AUTO 00000KT 10SM CLR 01/M01 A3051 RMK AO2 T00101012=
KCHO 190753Z AUTO 10SM OVC045 04/M06 A3046 RMK AO2 SLP315 T00391056 $=
KCPK 190755Z AUTO 36003KT 10SM CLR 04/M04 A3045 RMK AO2 T00401040=
KDAA 190756Z AUTO 33008G14KT 10SM CLR 01/M09 A3049 RMK AO2 SLP329 T00071088 $=
KDAN 190753Z AUTO 34006KT 10SM CLR 02/M04 A3048 RMK AO2 SLP317 T00171044=
KDCA 190752Z 35010KT 10SM FEW160 01/M07 A3049 RMK AO2 SLP324 T00061067=
KFAF 190756Z AUTO 01008KT 10SM BKN230 04/M05 A3043 RMK AO2 SLP308 T00441049 $=
KHEF 190756Z AUTO 35010KT 10SM CLR M01/M06 A3049 RMK AO2 SLP339 T10061061 PNO $=
KHSP 190755Z AUTO 34008KT 10SM OVC009 M04/M04 A3031 RMK AO2 T10451045=
KIAD 190752Z 35010KT 10SM SCT250 M01/M08 A3048 RMK AO2 SLP324 T10061083=
KLNP 190755Z AUTO 36003KT 10SM OVC016 M02/M05 A3042 RMK AO2=
KLYH 190754Z AUTO 00000KT 10SM CLR 01/M04 A3046 RMK AO2 SLP317 T00061039 $=
KMFV 190755Z AUTO 35012G17KT 10SM CLR 03/M04 A3045 RMK AO2 T00291040=
KNGU 190759Z 36013KT 10SM BKN220 04/M04 A3047 RMK AO2 SLP316 T00441044
KNTU 190756Z 36010KT 10SM BKN200 03/M05 A3043 RMK AO2 SLP308 T00331050=
KNYG 190756Z AUTO 01007KT 10SM CLR 02/M06 A3051 RMK AO2 SLP332 T00171056 $=
KOFP 190754Z AUTO 00000KT 10SM CLR M01/M04 A3049 RMK AO2 SLP325 T10061039=
KORF 190751Z 35013G20KT 10SM CLR 05/M04 A3044 RMK AO2 SLP305 T00501044=
KPHF 190754Z AUTO 36007KT 10SM CLR 04/M04 A3045 RMK AO2 SLP310 T00391039=
KPTB 190755Z AUTO 36005KT 10SM CLR 03/M04 A3047 RMK AO2 T00251045=
KRIC 190754Z 33004KT 10SM BKN240 02/M04 A3047 RMK AO2 SLP322 T00221039=
KROA 190754Z 36006KT 10SM OVC039 01/M07 A3048 RMK AO2 SLP328 T00111067=
KWAL 190754Z AUTO 33009KT 10SM CLR 02/M07 A3046 RMK AO2 SLP312 T00171067=